To NAV CANADA Home Page Login to a new session Search on AWWS site Disclaimer Vers la page française équivalente Tips FAQ What's new on the site To the Forecasts and Observations / NOTAM section To "File a Flight Plan" website Publications and other links Update of the User's profile FIC Telephone Numbers My Weather Data Folder Route Weather Data Regional Weather Data Local Weather Data To the Forecasts and Observations / NOTAM section
Request Generated 07/30/2021 at 07:08:57 UTC . Weather information available at that time is displayed.

METAR/TAF

TORONTO/LESTER B. PEARSON INTL/ON    

METAR CYYZ 300700Z 35015G22KT 15SM FEW080 18/15 A2985 RMK AC1 SLP109 DENSITY ALT 1200FT=
METAR CYYZ 300600Z 35014G20KT 15SM SCT080 19/15 A2984 RMK AC4 SLP103 DENSITY ALT 1300FT=
METAR CYYZ 300500Z 32010KT 15SM FEW030 SCT200 19/17 A2983 RMK SC1CI2 SLP101 DENSITY ALT 1400FT=

TAF CYYZ 300538Z 3006/3112 32010KT P6SM SKC
FM300800 33010KT P6SM SCT020 TEMPO 3008/3012 BKN020
FM301200 33010G20KT P6SM BKN030 TEMPO 3012/3014 BKN020
FM301600 35010G20KT P6SM SCT040
FM302000 34015KT P6SM FEW050
FM310200 33007KT P6SM SKC
FM310800 30007KT P6SM SCT100
BECMG 3110/3112 27007KT
RMK NXT FCST BY 300900Z=
Your time UTC time
Weather data provided by Environment Canada and NAV CANADA